<?xml version="1.0" encoding="UTF-8" standalone="no" ?>
<gpx xmlns="http://www.topografix.com/GPX/1/1" xmlns:xsi="http://www.w3.org/2001/XMLSchema-instance" xsi:schemaLocation="http://www.topografix.com/GPX/1/1 http://www.topografix.com/GPX/1/1/gpx.xsd" version="1.1" creator="VisuGPX - https://www.visugpx.com">
  <metadata>
    <name>15682092-PAT Cogny</name>
  </metadata>
  <trk>
    <name><![CDATA[15682092-PAT Cogny]]></name>
    <trkseg>
      <trkpt lat="45.98736" lon="4.62481">
        <ele>350</ele>
        <time>2022-10-12T09:04:59Z</time>
      </trkpt>
      <trkpt lat="45.98741" lon="4.62481">
        <ele>350</ele>
        <time>2022-10-12T09:05:06Z</time>
      </trkpt>
      <trkpt lat="45.98751" lon="4.62516">
        <ele>347</ele>
        <time>2022-10-12T09:05:41Z</time>
      </trkpt>
      <trkpt lat="45.98736" lon="4.62526">
        <ele>345</ele>
        <time>2022-10-12T09:06:03Z</time>
      </trkpt>
      <trkpt lat="45.98731" lon="4.62536">
        <ele>344</ele>
        <time>2022-10-12T09:06:14Z</time>
      </trkpt>
      <trkpt lat="45.98726" lon="4.62541">
        <ele>343</ele>
        <time>2022-10-12T09:06:22Z</time>
      </trkpt>
      <trkpt lat="45.98713" lon="4.62547">
        <ele>342</ele>
        <time>2022-10-12T09:06:41Z</time>
      </trkpt>
      <trkpt lat="45.98697" lon="4.62549">
        <ele>341</ele>
        <time>2022-10-12T09:07:02Z</time>
      </trkpt>
      <trkpt lat="45.98691" lon="4.62554">
        <ele>340</ele>
        <time>2022-10-12T09:07:11Z</time>
      </trkpt>
      <trkpt lat="45.98685" lon="4.62565">
        <ele>338</ele>
        <time>2022-10-12T09:07:24Z</time>
      </trkpt>
      <trkpt lat="45.98676" lon="4.62591">
        <ele>334</ele>
        <time>2022-10-12T09:07:51Z</time>
      </trkpt>
      <trkpt lat="45.98663" lon="4.62649">
        <ele>328</ele>
        <time>2022-10-12T09:08:48Z</time>
      </trkpt>
      <trkpt lat="45.98632" lon="4.62697">
        <ele>324</ele>
        <time>2022-10-12T09:09:48Z</time>
      </trkpt>
      <trkpt lat="45.98617" lon="4.62711">
        <ele>324</ele>
        <time>2022-10-12T09:10:12Z</time>
      </trkpt>
      <trkpt lat="45.986" lon="4.62737">
        <ele>323</ele>
        <time>2022-10-12T09:10:45Z</time>
      </trkpt>
      <trkpt lat="45.98557" lon="4.62821">
        <ele>321</ele>
        <time>2022-10-12T09:12:22Z</time>
      </trkpt>
      <trkpt lat="45.98551" lon="4.6283">
        <ele>321</ele>
        <time>2022-10-12T09:12:34Z</time>
      </trkpt>
      <trkpt lat="45.98498" lon="4.62888">
        <ele>320</ele>
        <time>2022-10-12T09:14:03Z</time>
      </trkpt>
      <trkpt lat="45.98472" lon="4.62911">
        <ele>319</ele>
        <time>2022-10-12T09:14:43Z</time>
      </trkpt>
      <trkpt lat="45.98407" lon="4.62948">
        <ele>320</ele>
        <time>2022-10-12T09:16:17Z</time>
      </trkpt>
      <trkpt lat="45.98347" lon="4.62979">
        <ele>319</ele>
        <time>2022-10-12T09:17:42Z</time>
      </trkpt>
      <trkpt lat="45.98346" lon="4.62997">
        <ele>319</ele>
        <time>2022-10-12T09:17:58Z</time>
      </trkpt>
      <trkpt lat="45.98348" lon="4.63008">
        <ele>319</ele>
        <time>2022-10-12T09:18:09Z</time>
      </trkpt>
      <trkpt lat="45.98353" lon="4.63014">
        <ele>319</ele>
        <time>2022-10-12T09:18:18Z</time>
      </trkpt>
      <trkpt lat="45.98412" lon="4.63092">
        <ele>313</ele>
        <time>2022-10-12T09:20:05Z</time>
      </trkpt>
      <trkpt lat="45.98356" lon="4.63183">
        <ele>310</ele>
        <time>2022-10-12T09:21:57Z</time>
      </trkpt>
      <trkpt lat="45.98347" lon="4.63212">
        <ele>309</ele>
        <time>2022-10-12T09:22:27Z</time>
      </trkpt>
      <trkpt lat="45.98341" lon="4.63313">
        <ele>305</ele>
        <time>2022-10-12T09:24:01Z</time>
      </trkpt>
      <trkpt lat="45.98327" lon="4.63412">
        <ele>301</ele>
        <time>2022-10-12T09:25:34Z</time>
      </trkpt>
      <trkpt lat="45.98318" lon="4.63461">
        <ele>299</ele>
        <time>2022-10-12T09:26:21Z</time>
      </trkpt>
      <trkpt lat="45.98296" lon="4.63506">
        <ele>297</ele>
        <time>2022-10-12T09:27:12Z</time>
      </trkpt>
      <trkpt lat="45.98283" lon="4.63537">
        <ele>294</ele>
        <time>2022-10-12T09:27:46Z</time>
      </trkpt>
      <trkpt lat="45.98267" lon="4.63602">
        <ele>288</ele>
        <time>2022-10-12T09:28:50Z</time>
      </trkpt>
      <trkpt lat="45.98267" lon="4.63637">
        <ele>286</ele>
        <time>2022-10-12T09:29:22Z</time>
      </trkpt>
      <trkpt lat="45.98269" lon="4.63678">
        <ele>284</ele>
        <time>2022-10-12T09:30:00Z</time>
      </trkpt>
      <trkpt lat="45.98266" lon="4.63699">
        <ele>283</ele>
        <time>2022-10-12T09:30:20Z</time>
      </trkpt>
      <trkpt lat="45.98253" lon="4.6374">
        <ele>281</ele>
        <time>2022-10-12T09:31:02Z</time>
      </trkpt>
      <trkpt lat="45.98242" lon="4.63764">
        <ele>279</ele>
        <time>2022-10-12T09:31:29Z</time>
      </trkpt>
      <trkpt lat="45.98227" lon="4.63809">
        <ele>273</ele>
        <time>2022-10-12T09:32:15Z</time>
      </trkpt>
      <trkpt lat="45.98223" lon="4.63826">
        <ele>271</ele>
        <time>2022-10-12T09:32:32Z</time>
      </trkpt>
      <trkpt lat="45.9822" lon="4.63893">
        <ele>269</ele>
        <time>2022-10-12T09:33:34Z</time>
      </trkpt>
      <trkpt lat="45.98215" lon="4.63888">
        <ele>269</ele>
        <time>2022-10-12T09:33:42Z</time>
      </trkpt>
      <trkpt lat="45.98196" lon="4.63867">
        <ele>266</ele>
        <time>2022-10-12T09:34:14Z</time>
      </trkpt>
      <trkpt lat="45.9819" lon="4.63854">
        <ele>265</ele>
        <time>2022-10-12T09:34:29Z</time>
      </trkpt>
      <trkpt lat="45.98134" lon="4.63841">
        <ele>263</ele>
        <time>2022-10-12T09:35:44Z</time>
      </trkpt>
      <trkpt lat="45.98126" lon="4.63842">
        <ele>264</ele>
        <time>2022-10-12T09:35:55Z</time>
      </trkpt>
      <trkpt lat="45.98089" lon="4.6386">
        <ele>265</ele>
        <time>2022-10-12T09:36:47Z</time>
      </trkpt>
      <trkpt lat="45.98081" lon="4.63862">
        <ele>265</ele>
        <time>2022-10-12T09:36:58Z</time>
      </trkpt>
      <trkpt lat="45.98077" lon="4.63863">
        <ele>266</ele>
        <time>2022-10-12T09:37:03Z</time>
      </trkpt>
      <trkpt lat="45.98052" lon="4.63914">
        <ele>269</ele>
        <time>2022-10-12T09:38:01Z</time>
      </trkpt>
      <trkpt lat="45.98043" lon="4.63934">
        <ele>270</ele>
        <time>2022-10-12T09:38:23Z</time>
      </trkpt>
      <trkpt lat="45.98031" lon="4.63973">
        <ele>272</ele>
        <time>2022-10-12T09:39:03Z</time>
      </trkpt>
      <trkpt lat="45.98024" lon="4.63985">
        <ele>273</ele>
        <time>2022-10-12T09:39:17Z</time>
      </trkpt>
      <trkpt lat="45.98018" lon="4.63992">
        <ele>273</ele>
        <time>2022-10-12T09:39:28Z</time>
      </trkpt>
      <trkpt lat="45.98007" lon="4.63996">
        <ele>275</ele>
        <time>2022-10-12T09:39:43Z</time>
      </trkpt>
      <trkpt lat="45.97996" lon="4.63997">
        <ele>277</ele>
        <time>2022-10-12T09:39:58Z</time>
      </trkpt>
      <trkpt lat="45.97869" lon="4.63989">
        <ele>291</ele>
        <time>2022-10-12T09:42:47Z</time>
      </trkpt>
      <trkpt lat="45.97867" lon="4.63975">
        <ele>291</ele>
        <time>2022-10-12T09:43:00Z</time>
      </trkpt>
      <trkpt lat="45.97854" lon="4.6386">
        <ele>297</ele>
        <time>2022-10-12T09:44:48Z</time>
      </trkpt>
      <trkpt lat="45.97818" lon="4.63638">
        <ele>308</ele>
        <time>2022-10-12T09:48:20Z</time>
      </trkpt>
      <trkpt lat="45.97818" lon="4.6359">
        <ele>310</ele>
        <time>2022-10-12T09:49:04Z</time>
      </trkpt>
      <trkpt lat="45.97826" lon="4.63483">
        <ele>314</ele>
        <time>2022-10-12T09:50:44Z</time>
      </trkpt>
      <trkpt lat="45.9782" lon="4.63434">
        <ele>317</ele>
        <time>2022-10-12T09:51:30Z</time>
      </trkpt>
      <trkpt lat="45.97822" lon="4.63386">
        <ele>318</ele>
        <time>2022-10-12T09:52:15Z</time>
      </trkpt>
      <trkpt lat="45.9781" lon="4.63311">
        <ele>320</ele>
        <time>2022-10-12T09:53:26Z</time>
      </trkpt>
      <trkpt lat="45.97807" lon="4.63294">
        <ele>321</ele>
        <time>2022-10-12T09:53:43Z</time>
      </trkpt>
      <trkpt lat="45.9787" lon="4.63199">
        <ele>318</ele>
        <time>2022-10-12T09:55:44Z</time>
      </trkpt>
      <trkpt lat="45.97902" lon="4.63125">
        <ele>312</ele>
        <time>2022-10-12T09:57:05Z</time>
      </trkpt>
      <trkpt lat="45.9792" lon="4.63078">
        <ele>306</ele>
        <time>2022-10-12T09:57:55Z</time>
      </trkpt>
      <trkpt lat="45.97927" lon="4.63011">
        <ele>301</ele>
        <time>2022-10-12T09:58:58Z</time>
      </trkpt>
      <trkpt lat="45.97934" lon="4.62985">
        <ele>299</ele>
        <time>2022-10-12T09:59:24Z</time>
      </trkpt>
      <trkpt lat="45.97947" lon="4.62955">
        <ele>296</ele>
        <time>2022-10-12T09:59:56Z</time>
      </trkpt>
      <trkpt lat="45.97961" lon="4.62941">
        <ele>293</ele>
        <time>2022-10-12T10:00:19Z</time>
      </trkpt>
      <trkpt lat="45.97975" lon="4.62942">
        <ele>290</ele>
        <time>2022-10-12T10:00:38Z</time>
      </trkpt>
      <trkpt lat="45.98003" lon="4.6295">
        <ele>284</ele>
        <time>2022-10-12T10:01:16Z</time>
      </trkpt>
      <trkpt lat="45.98015" lon="4.62947">
        <ele>284</ele>
        <time>2022-10-12T10:01:32Z</time>
      </trkpt>
      <trkpt lat="45.98035" lon="4.62933">
        <ele>284</ele>
        <time>2022-10-12T10:02:02Z</time>
      </trkpt>
      <trkpt lat="45.98051" lon="4.62918">
        <ele>285</ele>
        <time>2022-10-12T10:02:27Z</time>
      </trkpt>
      <trkpt lat="45.9806" lon="4.62909">
        <ele>285</ele>
        <time>2022-10-12T10:02:42Z</time>
      </trkpt>
      <trkpt lat="45.98051" lon="4.62893">
        <ele>285</ele>
        <time>2022-10-12T10:03:01Z</time>
      </trkpt>
      <trkpt lat="45.98009" lon="4.62748">
        <ele>288</ele>
        <time>2022-10-12T10:05:27Z</time>
      </trkpt>
      <trkpt lat="45.98007" lon="4.62607">
        <ele>288</ele>
        <time>2022-10-12T10:07:38Z</time>
      </trkpt>
      <trkpt lat="45.98003" lon="4.62543">
        <ele>291</ele>
        <time>2022-10-12T10:08:37Z</time>
      </trkpt>
      <trkpt lat="45.97995" lon="4.6248">
        <ele>293</ele>
        <time>2022-10-12T10:09:37Z</time>
      </trkpt>
      <trkpt lat="45.97988" lon="4.62444">
        <ele>294</ele>
        <time>2022-10-12T10:10:11Z</time>
      </trkpt>
      <trkpt lat="45.97989" lon="4.62422">
        <ele>295</ele>
        <time>2022-10-12T10:10:32Z</time>
      </trkpt>
      <trkpt lat="45.97991" lon="4.6241">
        <ele>295</ele>
        <time>2022-10-12T10:10:43Z</time>
      </trkpt>
      <trkpt lat="45.98001" lon="4.62365">
        <ele>294</ele>
        <time>2022-10-12T10:11:27Z</time>
      </trkpt>
      <trkpt lat="45.98003" lon="4.62312">
        <ele>296</ele>
        <time>2022-10-12T10:12:16Z</time>
      </trkpt>
      <trkpt lat="45.97997" lon="4.62279">
        <ele>297</ele>
        <time>2022-10-12T10:12:48Z</time>
      </trkpt>
      <trkpt lat="45.97987" lon="4.62258">
        <ele>299</ele>
        <time>2022-10-12T10:13:11Z</time>
      </trkpt>
      <trkpt lat="45.9795" lon="4.62197">
        <ele>303</ele>
        <time>2022-10-12T10:14:26Z</time>
      </trkpt>
      <trkpt lat="45.97929" lon="4.62156">
        <ele>304</ele>
        <time>2022-10-12T10:15:14Z</time>
      </trkpt>
      <trkpt lat="45.9791" lon="4.62104">
        <ele>303</ele>
        <time>2022-10-12T10:16:08Z</time>
      </trkpt>
      <trkpt lat="45.979" lon="4.62071">
        <ele>304</ele>
        <time>2022-10-12T10:16:42Z</time>
      </trkpt>
      <trkpt lat="45.97891" lon="4.62005">
        <ele>305</ele>
        <time>2022-10-12T10:17:44Z</time>
      </trkpt>
      <trkpt lat="45.9788" lon="4.61948">
        <ele>307</ele>
        <time>2022-10-12T10:18:39Z</time>
      </trkpt>
      <trkpt lat="45.97863" lon="4.61868">
        <ele>309</ele>
        <time>2022-10-12T10:19:56Z</time>
      </trkpt>
      <trkpt lat="45.97832" lon="4.61782">
        <ele>308</ele>
        <time>2022-10-12T10:21:26Z</time>
      </trkpt>
      <trkpt lat="45.97822" lon="4.61794">
        <ele>311</ele>
        <time>2022-10-12T10:21:44Z</time>
      </trkpt>
      <trkpt lat="45.97819" lon="4.61849">
        <ele>313</ele>
        <time>2022-10-12T10:22:35Z</time>
      </trkpt>
      <trkpt lat="45.97808" lon="4.61902">
        <ele>318</ele>
        <time>2022-10-12T10:23:26Z</time>
      </trkpt>
      <trkpt lat="45.97771" lon="4.6201">
        <ele>335</ele>
        <time>2022-10-12T10:25:18Z</time>
      </trkpt>
      <trkpt lat="45.97763" lon="4.62043">
        <ele>339</ele>
        <time>2022-10-12T10:25:50Z</time>
      </trkpt>
      <trkpt lat="45.97755" lon="4.62108">
        <ele>343</ele>
        <time>2022-10-12T10:26:51Z</time>
      </trkpt>
      <trkpt lat="45.9775" lon="4.62129">
        <ele>346</ele>
        <time>2022-10-12T10:27:12Z</time>
      </trkpt>
      <trkpt lat="45.97742" lon="4.62151">
        <ele>348</ele>
        <time>2022-10-12T10:27:35Z</time>
      </trkpt>
      <trkpt lat="45.97736" lon="4.62162">
        <ele>350</ele>
        <time>2022-10-12T10:27:48Z</time>
      </trkpt>
      <trkpt lat="45.9772" lon="4.6218">
        <ele>353</ele>
        <time>2022-10-12T10:28:15Z</time>
      </trkpt>
      <trkpt lat="45.97703" lon="4.62197">
        <ele>356</ele>
        <time>2022-10-12T10:28:43Z</time>
      </trkpt>
      <trkpt lat="45.97614" lon="4.62263">
        <ele>362</ele>
        <time>2022-10-12T10:30:56Z</time>
      </trkpt>
      <trkpt lat="45.97615" lon="4.62126">
        <ele>370</ele>
        <time>2022-10-12T10:33:03Z</time>
      </trkpt>
      <trkpt lat="45.97617" lon="4.62091">
        <ele>372</ele>
        <time>2022-10-12T10:33:36Z</time>
      </trkpt>
      <trkpt lat="45.97626" lon="4.62063">
        <ele>371</ele>
        <time>2022-10-12T10:34:04Z</time>
      </trkpt>
      <trkpt lat="45.97629" lon="4.62037">
        <ele>371</ele>
        <time>2022-10-12T10:34:29Z</time>
      </trkpt>
      <trkpt lat="45.9763" lon="4.62007">
        <ele>372</ele>
        <time>2022-10-12T10:34:57Z</time>
      </trkpt>
      <trkpt lat="45.97616" lon="4.6191">
        <ele>369</ele>
        <time>2022-10-12T10:36:29Z</time>
      </trkpt>
      <trkpt lat="45.97616" lon="4.61906">
        <ele>369</ele>
        <time>2022-10-12T10:36:32Z</time>
      </trkpt>
      <trkpt lat="45.9758" lon="4.61892">
        <ele>373</ele>
        <time>2022-10-12T10:37:22Z</time>
      </trkpt>
      <trkpt lat="45.97592" lon="4.61833">
        <ele>370</ele>
        <time>2022-10-12T10:38:19Z</time>
      </trkpt>
      <trkpt lat="45.97599" lon="4.61775">
        <ele>370</ele>
        <time>2022-10-12T10:39:14Z</time>
      </trkpt>
      <trkpt lat="45.97581" lon="4.61773">
        <ele>373</ele>
        <time>2022-10-12T10:39:38Z</time>
      </trkpt>
      <trkpt lat="45.9758" lon="4.6176">
        <ele>374</ele>
        <time>2022-10-12T10:39:50Z</time>
      </trkpt>
      <trkpt lat="45.97582" lon="4.61712">
        <ele>375</ele>
        <time>2022-10-12T10:40:35Z</time>
      </trkpt>
      <trkpt lat="45.97594" lon="4.61655">
        <ele>374</ele>
        <time>2022-10-12T10:41:30Z</time>
      </trkpt>
      <trkpt lat="45.97571" lon="4.61652">
        <ele>378</ele>
        <time>2022-10-12T10:42:01Z</time>
      </trkpt>
      <trkpt lat="45.9746" lon="4.61651">
        <ele>392</ele>
        <time>2022-10-12T10:44:29Z</time>
      </trkpt>
      <trkpt lat="45.97462" lon="4.61622">
        <ele>393</ele>
        <time>2022-10-12T10:44:56Z</time>
      </trkpt>
      <trkpt lat="45.97461" lon="4.61606">
        <ele>394</ele>
        <time>2022-10-12T10:45:11Z</time>
      </trkpt>
      <trkpt lat="45.97338" lon="4.61597">
        <ele>407</ele>
        <time>2022-10-12T10:47:55Z</time>
      </trkpt>
      <trkpt lat="45.97269" lon="4.61575">
        <ele>409</ele>
        <time>2022-10-12T10:49:29Z</time>
      </trkpt>
      <trkpt lat="45.97225" lon="4.61558">
        <ele>406</ele>
        <time>2022-10-12T10:50:30Z</time>
      </trkpt>
      <trkpt lat="45.97245" lon="4.61519">
        <ele>408</ele>
        <time>2022-10-12T10:51:15Z</time>
      </trkpt>
      <trkpt lat="45.97258" lon="4.6147">
        <ele>409</ele>
        <time>2022-10-12T10:52:04Z</time>
      </trkpt>
      <trkpt lat="45.97275" lon="4.61263">
        <ele>403</ele>
        <time>2022-10-12T10:55:17Z</time>
      </trkpt>
      <trkpt lat="45.97271" lon="4.61197">
        <ele>404</ele>
        <time>2022-10-12T10:56:18Z</time>
      </trkpt>
      <trkpt lat="45.9727" lon="4.61187">
        <ele>404</ele>
        <time>2022-10-12T10:56:28Z</time>
      </trkpt>
      <trkpt lat="45.97273" lon="4.61179">
        <ele>404</ele>
        <time>2022-10-12T10:56:36Z</time>
      </trkpt>
      <trkpt lat="45.97315" lon="4.61176">
        <ele>405</ele>
        <time>2022-10-12T10:57:32Z</time>
      </trkpt>
      <trkpt lat="45.97336" lon="4.61184">
        <ele>404</ele>
        <time>2022-10-12T10:58:01Z</time>
      </trkpt>
      <trkpt lat="45.97375" lon="4.61181">
        <ele>396</ele>
        <time>2022-10-12T10:58:54Z</time>
      </trkpt>
      <trkpt lat="45.97381" lon="4.61185">
        <ele>395</ele>
        <time>2022-10-12T10:59:02Z</time>
      </trkpt>
      <trkpt lat="45.97383" lon="4.61188">
        <ele>395</ele>
        <time>2022-10-12T10:59:06Z</time>
      </trkpt>
      <trkpt lat="45.97384" lon="4.61196">
        <ele>395</ele>
        <time>2022-10-12T10:59:14Z</time>
      </trkpt>
      <trkpt lat="45.97391" lon="4.61219">
        <ele>394</ele>
        <time>2022-10-12T10:59:37Z</time>
      </trkpt>
      <trkpt lat="45.97392" lon="4.61186">
        <ele>393</ele>
        <time>2022-10-12T11:00:08Z</time>
      </trkpt>
      <trkpt lat="45.97398" lon="4.61176">
        <ele>391</ele>
        <time>2022-10-12T11:00:20Z</time>
      </trkpt>
      <trkpt lat="45.97402" lon="4.61162">
        <ele>391</ele>
        <time>2022-10-12T11:00:34Z</time>
      </trkpt>
      <trkpt lat="45.97407" lon="4.61154">
        <ele>390</ele>
        <time>2022-10-12T11:00:44Z</time>
      </trkpt>
      <trkpt lat="45.97419" lon="4.61148">
        <ele>388</ele>
        <time>2022-10-12T11:01:01Z</time>
      </trkpt>
      <trkpt lat="45.97435" lon="4.61145">
        <ele>386</ele>
        <time>2022-10-12T11:01:22Z</time>
      </trkpt>
      <trkpt lat="45.97453" lon="4.61148">
        <ele>382</ele>
        <time>2022-10-12T11:01:47Z</time>
      </trkpt>
      <trkpt lat="45.97488" lon="4.61158">
        <ele>376</ele>
        <time>2022-10-12T11:02:34Z</time>
      </trkpt>
      <trkpt lat="45.975" lon="4.6116">
        <ele>374</ele>
        <time>2022-10-12T11:02:50Z</time>
      </trkpt>
      <trkpt lat="45.97516" lon="4.61157">
        <ele>372</ele>
        <time>2022-10-12T11:03:12Z</time>
      </trkpt>
      <trkpt lat="45.97586" lon="4.61126">
        <ele>363</ele>
        <time>2022-10-12T11:04:50Z</time>
      </trkpt>
      <trkpt lat="45.97594" lon="4.61116">
        <ele>362</ele>
        <time>2022-10-12T11:05:04Z</time>
      </trkpt>
      <trkpt lat="45.97601" lon="4.61101">
        <ele>361</ele>
        <time>2022-10-12T11:05:20Z</time>
      </trkpt>
      <trkpt lat="45.97611" lon="4.61119">
        <ele>360</ele>
        <time>2022-10-12T11:05:42Z</time>
      </trkpt>
      <trkpt lat="45.97622" lon="4.61129">
        <ele>358</ele>
        <time>2022-10-12T11:05:59Z</time>
      </trkpt>
      <trkpt lat="45.97638" lon="4.61138">
        <ele>356</ele>
        <time>2022-10-12T11:06:22Z</time>
      </trkpt>
      <trkpt lat="45.97659" lon="4.61155">
        <ele>353</ele>
        <time>2022-10-12T11:06:54Z</time>
      </trkpt>
      <trkpt lat="45.9767" lon="4.61159">
        <ele>351</ele>
        <time>2022-10-12T11:07:09Z</time>
      </trkpt>
      <trkpt lat="45.97674" lon="4.61164">
        <ele>350</ele>
        <time>2022-10-12T11:07:17Z</time>
      </trkpt>
      <trkpt lat="45.97688" lon="4.61172">
        <ele>345</ele>
        <time>2022-10-12T11:07:37Z</time>
      </trkpt>
      <trkpt lat="45.97695" lon="4.61171">
        <ele>343</ele>
        <time>2022-10-12T11:07:46Z</time>
      </trkpt>
      <trkpt lat="45.97702" lon="4.61166">
        <ele>341</ele>
        <time>2022-10-12T11:07:56Z</time>
      </trkpt>
      <trkpt lat="45.97708" lon="4.61149">
        <ele>340</ele>
        <time>2022-10-12T11:08:14Z</time>
      </trkpt>
      <trkpt lat="45.97716" lon="4.61099">
        <ele>339</ele>
        <time>2022-10-12T11:09:02Z</time>
      </trkpt>
      <trkpt lat="45.97725" lon="4.61076">
        <ele>338</ele>
        <time>2022-10-12T11:09:26Z</time>
      </trkpt>
      <trkpt lat="45.97752" lon="4.60991">
        <ele>336</ele>
        <time>2022-10-12T11:10:53Z</time>
      </trkpt>
      <trkpt lat="45.97779" lon="4.60927">
        <ele>337</ele>
        <time>2022-10-12T11:12:02Z</time>
      </trkpt>
      <trkpt lat="45.97788" lon="4.60922">
        <ele>336</ele>
        <time>2022-10-12T11:12:15Z</time>
      </trkpt>
      <trkpt lat="45.97795" lon="4.60896">
        <ele>336</ele>
        <time>2022-10-12T11:12:41Z</time>
      </trkpt>
      <trkpt lat="45.97808" lon="4.60888">
        <ele>335</ele>
        <time>2022-10-12T11:13:00Z</time>
      </trkpt>
      <trkpt lat="45.97825" lon="4.60884">
        <ele>333</ele>
        <time>2022-10-12T11:13:23Z</time>
      </trkpt>
      <trkpt lat="45.9784" lon="4.60874">
        <ele>333</ele>
        <time>2022-10-12T11:13:45Z</time>
      </trkpt>
      <trkpt lat="45.97854" lon="4.60871">
        <ele>335</ele>
        <time>2022-10-12T11:14:04Z</time>
      </trkpt>
      <trkpt lat="45.97872" lon="4.60894">
        <ele>337</ele>
        <time>2022-10-12T11:14:36Z</time>
      </trkpt>
      <trkpt lat="45.97876" lon="4.60905">
        <ele>338</ele>
        <time>2022-10-12T11:14:47Z</time>
      </trkpt>
      <trkpt lat="45.97884" lon="4.60943">
        <ele>340</ele>
        <time>2022-10-12T11:15:24Z</time>
      </trkpt>
      <trkpt lat="45.97887" lon="4.60948">
        <ele>340</ele>
        <time>2022-10-12T11:15:30Z</time>
      </trkpt>
      <trkpt lat="45.97893" lon="4.60951">
        <ele>342</ele>
        <time>2022-10-12T11:15:39Z</time>
      </trkpt>
      <trkpt lat="45.97907" lon="4.60946">
        <ele>344</ele>
        <time>2022-10-12T11:15:58Z</time>
      </trkpt>
      <trkpt lat="45.97893" lon="4.60951">
        <ele>342</ele>
        <time>2022-10-12T11:16:17Z</time>
      </trkpt>
      <trkpt lat="45.97887" lon="4.60948">
        <ele>340</ele>
        <time>2022-10-12T11:16:26Z</time>
      </trkpt>
      <trkpt lat="45.97884" lon="4.60943">
        <ele>340</ele>
        <time>2022-10-12T11:16:32Z</time>
      </trkpt>
      <trkpt lat="45.97876" lon="4.60905">
        <ele>338</ele>
        <time>2022-10-12T11:17:09Z</time>
      </trkpt>
      <trkpt lat="45.97872" lon="4.60894">
        <ele>337</ele>
        <time>2022-10-12T11:17:20Z</time>
      </trkpt>
      <trkpt lat="45.97854" lon="4.60871">
        <ele>335</ele>
        <time>2022-10-12T11:17:52Z</time>
      </trkpt>
      <trkpt lat="45.9784" lon="4.60874">
        <ele>333</ele>
        <time>2022-10-12T11:18:11Z</time>
      </trkpt>
      <trkpt lat="45.97825" lon="4.60884">
        <ele>333</ele>
        <time>2022-10-12T11:18:33Z</time>
      </trkpt>
      <trkpt lat="45.97808" lon="4.60888">
        <ele>335</ele>
        <time>2022-10-12T11:18:56Z</time>
      </trkpt>
      <trkpt lat="45.97795" lon="4.60896">
        <ele>336</ele>
        <time>2022-10-12T11:19:15Z</time>
      </trkpt>
      <trkpt lat="45.97788" lon="4.60922">
        <ele>336</ele>
        <time>2022-10-12T11:19:41Z</time>
      </trkpt>
      <trkpt lat="45.97779" lon="4.60927">
        <ele>337</ele>
        <time>2022-10-12T11:19:54Z</time>
      </trkpt>
      <trkpt lat="45.97752" lon="4.60991">
        <ele>336</ele>
        <time>2022-10-12T11:21:03Z</time>
      </trkpt>
      <trkpt lat="45.97725" lon="4.61076">
        <ele>338</ele>
        <time>2022-10-12T11:22:30Z</time>
      </trkpt>
      <trkpt lat="45.97716" lon="4.61099">
        <ele>339</ele>
        <time>2022-10-12T11:22:55Z</time>
      </trkpt>
      <trkpt lat="45.97708" lon="4.61149">
        <ele>340</ele>
        <time>2022-10-12T11:23:42Z</time>
      </trkpt>
      <trkpt lat="45.97705" lon="4.6116">
        <ele>341</ele>
        <time>2022-10-12T11:23:53Z</time>
      </trkpt>
      <trkpt lat="45.97686" lon="4.61211">
        <ele>345</ele>
        <time>2022-10-12T11:24:47Z</time>
      </trkpt>
      <trkpt lat="45.97686" lon="4.61237">
        <ele>344</ele>
        <time>2022-10-12T11:25:11Z</time>
      </trkpt>
      <trkpt lat="45.97688" lon="4.61268">
        <ele>344</ele>
        <time>2022-10-12T11:25:40Z</time>
      </trkpt>
      <trkpt lat="45.97694" lon="4.61308">
        <ele>344</ele>
        <time>2022-10-12T11:26:18Z</time>
      </trkpt>
      <trkpt lat="45.97696" lon="4.61353">
        <ele>344</ele>
        <time>2022-10-12T11:27:00Z</time>
      </trkpt>
      <trkpt lat="45.97702" lon="4.61389">
        <ele>342</ele>
        <time>2022-10-12T11:27:34Z</time>
      </trkpt>
      <trkpt lat="45.97706" lon="4.61494">
        <ele>342</ele>
        <time>2022-10-12T11:29:11Z</time>
      </trkpt>
      <trkpt lat="45.97695" lon="4.61564">
        <ele>348</ele>
        <time>2022-10-12T11:30:18Z</time>
      </trkpt>
      <trkpt lat="45.97677" lon="4.61644">
        <ele>356</ele>
        <time>2022-10-12T11:31:36Z</time>
      </trkpt>
      <trkpt lat="45.9767" lon="4.61706">
        <ele>358</ele>
        <time>2022-10-12T11:32:34Z</time>
      </trkpt>
      <trkpt lat="45.9767" lon="4.61734">
        <ele>358</ele>
        <time>2022-10-12T11:33:00Z</time>
      </trkpt>
      <trkpt lat="45.97666" lon="4.61756">
        <ele>359</ele>
        <time>2022-10-12T11:33:21Z</time>
      </trkpt>
      <trkpt lat="45.97637" lon="4.61824">
        <ele>363</ele>
        <time>2022-10-12T11:34:35Z</time>
      </trkpt>
      <trkpt lat="45.9762" lon="4.6188">
        <ele>367</ele>
        <time>2022-10-12T11:35:32Z</time>
      </trkpt>
      <trkpt lat="45.97616" lon="4.6191">
        <ele>369</ele>
        <time>2022-10-12T11:36:00Z</time>
      </trkpt>
      <trkpt lat="45.9763" lon="4.62007">
        <ele>372</ele>
        <time>2022-10-12T11:37:32Z</time>
      </trkpt>
      <trkpt lat="45.97629" lon="4.62037">
        <ele>371</ele>
        <time>2022-10-12T11:38:00Z</time>
      </trkpt>
      <trkpt lat="45.97626" lon="4.62063">
        <ele>371</ele>
        <time>2022-10-12T11:38:24Z</time>
      </trkpt>
      <trkpt lat="45.97617" lon="4.62091">
        <ele>372</ele>
        <time>2022-10-12T11:38:53Z</time>
      </trkpt>
      <trkpt lat="45.97615" lon="4.62126">
        <ele>370</ele>
        <time>2022-10-12T11:39:26Z</time>
      </trkpt>
      <trkpt lat="45.97614" lon="4.62263">
        <ele>362</ele>
        <time>2022-10-12T11:41:33Z</time>
      </trkpt>
      <trkpt lat="45.97703" lon="4.62197">
        <ele>356</ele>
        <time>2022-10-12T11:43:46Z</time>
      </trkpt>
      <trkpt lat="45.9772" lon="4.6218">
        <ele>353</ele>
        <time>2022-10-12T11:44:14Z</time>
      </trkpt>
      <trkpt lat="45.97736" lon="4.62162">
        <ele>350</ele>
        <time>2022-10-12T11:44:41Z</time>
      </trkpt>
      <trkpt lat="45.97742" lon="4.62151">
        <ele>348</ele>
        <time>2022-10-12T11:44:54Z</time>
      </trkpt>
      <trkpt lat="45.9775" lon="4.62129">
        <ele>346</ele>
        <time>2022-10-12T11:45:17Z</time>
      </trkpt>
      <trkpt lat="45.97755" lon="4.62108">
        <ele>343</ele>
        <time>2022-10-12T11:45:38Z</time>
      </trkpt>
      <trkpt lat="45.97763" lon="4.62043">
        <ele>339</ele>
        <time>2022-10-12T11:46:39Z</time>
      </trkpt>
      <trkpt lat="45.97771" lon="4.6201">
        <ele>335</ele>
        <time>2022-10-12T11:47:11Z</time>
      </trkpt>
      <trkpt lat="45.97808" lon="4.61902">
        <ele>318</ele>
        <time>2022-10-12T11:49:03Z</time>
      </trkpt>
      <trkpt lat="45.97819" lon="4.61849">
        <ele>313</ele>
        <time>2022-10-12T11:49:54Z</time>
      </trkpt>
      <trkpt lat="45.97822" lon="4.61794">
        <ele>311</ele>
        <time>2022-10-12T11:50:45Z</time>
      </trkpt>
      <trkpt lat="45.97832" lon="4.61782">
        <ele>308</ele>
        <time>2022-10-12T11:51:03Z</time>
      </trkpt>
      <trkpt lat="45.97833" lon="4.6177">
        <ele>307</ele>
        <time>2022-10-12T11:51:14Z</time>
      </trkpt>
      <trkpt lat="45.97841" lon="4.61754">
        <ele>309</ele>
        <time>2022-10-12T11:51:32Z</time>
      </trkpt>
      <trkpt lat="45.97857" lon="4.6174">
        <ele>313</ele>
        <time>2022-10-12T11:51:57Z</time>
      </trkpt>
      <trkpt lat="45.97869" lon="4.61734">
        <ele>316</ele>
        <time>2022-10-12T11:52:14Z</time>
      </trkpt>
      <trkpt lat="45.97877" lon="4.61673">
        <ele>319</ele>
        <time>2022-10-12T11:53:12Z</time>
      </trkpt>
      <trkpt lat="45.97876" lon="4.61635">
        <ele>319</ele>
        <time>2022-10-12T11:53:47Z</time>
      </trkpt>
      <trkpt lat="45.97879" lon="4.61621">
        <ele>320</ele>
        <time>2022-10-12T11:54:01Z</time>
      </trkpt>
      <trkpt lat="45.97883" lon="4.61617">
        <ele>321</ele>
        <time>2022-10-12T11:54:07Z</time>
      </trkpt>
      <trkpt lat="45.9789" lon="4.61615">
        <ele>322</ele>
        <time>2022-10-12T11:54:17Z</time>
      </trkpt>
      <trkpt lat="45.97883" lon="4.61617">
        <ele>321</ele>
        <time>2022-10-12T11:54:26Z</time>
      </trkpt>
      <trkpt lat="45.97879" lon="4.61621">
        <ele>320</ele>
        <time>2022-10-12T11:54:33Z</time>
      </trkpt>
      <trkpt lat="45.97876" lon="4.61635">
        <ele>319</ele>
        <time>2022-10-12T11:54:46Z</time>
      </trkpt>
      <trkpt lat="45.97877" lon="4.61673">
        <ele>319</ele>
        <time>2022-10-12T11:55:21Z</time>
      </trkpt>
      <trkpt lat="45.97869" lon="4.61734">
        <ele>316</ele>
        <time>2022-10-12T11:56:19Z</time>
      </trkpt>
      <trkpt lat="45.97857" lon="4.6174">
        <ele>313</ele>
        <time>2022-10-12T11:56:36Z</time>
      </trkpt>
      <trkpt lat="45.97841" lon="4.61754">
        <ele>309</ele>
        <time>2022-10-12T11:57:01Z</time>
      </trkpt>
      <trkpt lat="45.97833" lon="4.6177">
        <ele>307</ele>
        <time>2022-10-12T11:57:19Z</time>
      </trkpt>
      <trkpt lat="45.97832" lon="4.61782">
        <ele>308</ele>
        <time>2022-10-12T11:57:30Z</time>
      </trkpt>
      <trkpt lat="45.97822" lon="4.61794">
        <ele>311</ele>
        <time>2022-10-12T11:57:48Z</time>
      </trkpt>
      <trkpt lat="45.97819" lon="4.61849">
        <ele>313</ele>
        <time>2022-10-12T11:58:39Z</time>
      </trkpt>
      <trkpt lat="45.97808" lon="4.61902">
        <ele>318</ele>
        <time>2022-10-12T11:59:30Z</time>
      </trkpt>
      <trkpt lat="45.97771" lon="4.6201">
        <ele>335</ele>
        <time>2022-10-12T12:01:22Z</time>
      </trkpt>
      <trkpt lat="45.97763" lon="4.62043">
        <ele>339</ele>
        <time>2022-10-12T12:01:54Z</time>
      </trkpt>
      <trkpt lat="45.97755" lon="4.62108">
        <ele>343</ele>
        <time>2022-10-12T12:02:56Z</time>
      </trkpt>
      <trkpt lat="45.9775" lon="4.62129">
        <ele>346</ele>
        <time>2022-10-12T12:03:16Z</time>
      </trkpt>
      <trkpt lat="45.97742" lon="4.62151">
        <ele>348</ele>
        <time>2022-10-12T12:03:39Z</time>
      </trkpt>
      <trkpt lat="45.97736" lon="4.62162">
        <ele>350</ele>
        <time>2022-10-12T12:03:52Z</time>
      </trkpt>
      <trkpt lat="45.9772" lon="4.6218">
        <ele>353</ele>
        <time>2022-10-12T12:04:19Z</time>
      </trkpt>
      <trkpt lat="45.97703" lon="4.62197">
        <ele>356</ele>
        <time>2022-10-12T12:04:47Z</time>
      </trkpt>
      <trkpt lat="45.97614" lon="4.62263">
        <ele>362</ele>
        <time>2022-10-12T12:07:00Z</time>
      </trkpt>
      <trkpt lat="45.97615" lon="4.62126">
        <ele>370</ele>
        <time>2022-10-12T12:09:08Z</time>
      </trkpt>
      <trkpt lat="45.97617" lon="4.62091">
        <ele>372</ele>
        <time>2022-10-12T12:09:40Z</time>
      </trkpt>
      <trkpt lat="45.97626" lon="4.62063">
        <ele>371</ele>
        <time>2022-10-12T12:10:09Z</time>
      </trkpt>
      <trkpt lat="45.97629" lon="4.62037">
        <ele>371</ele>
        <time>2022-10-12T12:10:33Z</time>
      </trkpt>
      <trkpt lat="45.9763" lon="4.62007">
        <ele>372</ele>
        <time>2022-10-12T12:11:01Z</time>
      </trkpt>
      <trkpt lat="45.97616" lon="4.6191">
        <ele>369</ele>
        <time>2022-10-12T12:12:33Z</time>
      </trkpt>
      <trkpt lat="45.9762" lon="4.6188">
        <ele>367</ele>
        <time>2022-10-12T12:13:01Z</time>
      </trkpt>
      <trkpt lat="45.97637" lon="4.61824">
        <ele>363</ele>
        <time>2022-10-12T12:13:58Z</time>
      </trkpt>
      <trkpt lat="45.97666" lon="4.61756">
        <ele>359</ele>
        <time>2022-10-12T12:15:12Z</time>
      </trkpt>
      <trkpt lat="45.9767" lon="4.61734">
        <ele>358</ele>
        <time>2022-10-12T12:15:33Z</time>
      </trkpt>
      <trkpt lat="45.9767" lon="4.61706">
        <ele>358</ele>
        <time>2022-10-12T12:15:59Z</time>
      </trkpt>
      <trkpt lat="45.97677" lon="4.61644">
        <ele>356</ele>
        <time>2022-10-12T12:16:57Z</time>
      </trkpt>
      <trkpt lat="45.97695" lon="4.61564">
        <ele>348</ele>
        <time>2022-10-12T12:18:15Z</time>
      </trkpt>
      <trkpt lat="45.97706" lon="4.61494">
        <ele>342</ele>
        <time>2022-10-12T12:19:22Z</time>
      </trkpt>
      <trkpt lat="45.97702" lon="4.61389">
        <ele>342</ele>
        <time>2022-10-12T12:20:59Z</time>
      </trkpt>
      <trkpt lat="45.97696" lon="4.61353">
        <ele>344</ele>
        <time>2022-10-12T12:21:34Z</time>
      </trkpt>
      <trkpt lat="45.97694" lon="4.61308">
        <ele>344</ele>
        <time>2022-10-12T12:22:15Z</time>
      </trkpt>
      <trkpt lat="45.97688" lon="4.61268">
        <ele>344</ele>
        <time>2022-10-12T12:22:53Z</time>
      </trkpt>
      <trkpt lat="45.97686" lon="4.61211">
        <ele>345</ele>
        <time>2022-10-12T12:23:46Z</time>
      </trkpt>
      <trkpt lat="45.97708" lon="4.61149">
        <ele>340</ele>
        <time>2022-10-12T12:24:51Z</time>
      </trkpt>
      <trkpt lat="45.97716" lon="4.61099">
        <ele>339</ele>
        <time>2022-10-12T12:25:38Z</time>
      </trkpt>
      <trkpt lat="45.97725" lon="4.61076">
        <ele>338</ele>
        <time>2022-10-12T12:26:03Z</time>
      </trkpt>
      <trkpt lat="45.97752" lon="4.60991">
        <ele>336</ele>
        <time>2022-10-12T12:27:30Z</time>
      </trkpt>
      <trkpt lat="45.97779" lon="4.60927">
        <ele>337</ele>
        <time>2022-10-12T12:28:39Z</time>
      </trkpt>
      <trkpt lat="45.97788" lon="4.60922">
        <ele>336</ele>
        <time>2022-10-12T12:28:52Z</time>
      </trkpt>
      <trkpt lat="45.97795" lon="4.60896">
        <ele>336</ele>
        <time>2022-10-12T12:29:18Z</time>
      </trkpt>
      <trkpt lat="45.97808" lon="4.60888">
        <ele>335</ele>
        <time>2022-10-12T12:29:37Z</time>
      </trkpt>
      <trkpt lat="45.97825" lon="4.60884">
        <ele>333</ele>
        <time>2022-10-12T12:30:00Z</time>
      </trkpt>
      <trkpt lat="45.9784" lon="4.60874">
        <ele>333</ele>
        <time>2022-10-12T12:30:22Z</time>
      </trkpt>
      <trkpt lat="45.97854" lon="4.60871">
        <ele>335</ele>
        <time>2022-10-12T12:30:41Z</time>
      </trkpt>
      <trkpt lat="45.97872" lon="4.60894">
        <ele>337</ele>
        <time>2022-10-12T12:31:13Z</time>
      </trkpt>
      <trkpt lat="45.97876" lon="4.60905">
        <ele>338</ele>
        <time>2022-10-12T12:31:24Z</time>
      </trkpt>
      <trkpt lat="45.97884" lon="4.60943">
        <ele>340</ele>
        <time>2022-10-12T12:32:01Z</time>
      </trkpt>
      <trkpt lat="45.97887" lon="4.60948">
        <ele>340</ele>
        <time>2022-10-12T12:32:07Z</time>
      </trkpt>
      <trkpt lat="45.97893" lon="4.60951">
        <ele>342</ele>
        <time>2022-10-12T12:32:16Z</time>
      </trkpt>
      <trkpt lat="45.97905" lon="4.60947">
        <ele>344</ele>
        <time>2022-10-12T12:32:32Z</time>
      </trkpt>
      <trkpt lat="45.97917" lon="4.6094">
        <ele>345</ele>
        <time>2022-10-12T12:32:49Z</time>
      </trkpt>
      <trkpt lat="45.97949" lon="4.60913">
        <ele>351</ele>
        <time>2022-10-12T12:33:39Z</time>
      </trkpt>
      <trkpt lat="45.97957" lon="4.60901">
        <ele>352</ele>
        <time>2022-10-12T12:33:54Z</time>
      </trkpt>
      <trkpt lat="45.97965" lon="4.60886">
        <ele>354</ele>
        <time>2022-10-12T12:34:12Z</time>
      </trkpt>
      <trkpt lat="45.97977" lon="4.60821">
        <ele>358</ele>
        <time>2022-10-12T12:35:14Z</time>
      </trkpt>
      <trkpt lat="45.97981" lon="4.60803">
        <ele>359</ele>
        <time>2022-10-12T12:35:32Z</time>
      </trkpt>
      <trkpt lat="45.97986" lon="4.60795">
        <ele>360</ele>
        <time>2022-10-12T12:35:42Z</time>
      </trkpt>
      <trkpt lat="45.97992" lon="4.60797">
        <ele>361</ele>
        <time>2022-10-12T12:35:50Z</time>
      </trkpt>
      <trkpt lat="45.97995" lon="4.60802">
        <ele>362</ele>
        <time>2022-10-12T12:35:56Z</time>
      </trkpt>
      <trkpt lat="45.98007" lon="4.6082">
        <ele>364</ele>
        <time>2022-10-12T12:36:19Z</time>
      </trkpt>
      <trkpt lat="45.9802" lon="4.60824">
        <ele>366</ele>
        <time>2022-10-12T12:36:37Z</time>
      </trkpt>
      <trkpt lat="45.98039" lon="4.60824">
        <ele>369</ele>
        <time>2022-10-12T12:37:02Z</time>
      </trkpt>
      <trkpt lat="45.98053" lon="4.60827">
        <ele>371</ele>
        <time>2022-10-12T12:37:21Z</time>
      </trkpt>
      <trkpt lat="45.98061" lon="4.60834">
        <ele>373</ele>
        <time>2022-10-12T12:37:34Z</time>
      </trkpt>
      <trkpt lat="45.98065" lon="4.60846">
        <ele>373</ele>
        <time>2022-10-12T12:37:46Z</time>
      </trkpt>
      <trkpt lat="45.98066" lon="4.60859">
        <ele>374</ele>
        <time>2022-10-12T12:37:58Z</time>
      </trkpt>
      <trkpt lat="45.98039" lon="4.61007">
        <ele>379</ele>
        <time>2022-10-12T12:40:20Z</time>
      </trkpt>
      <trkpt lat="45.9804" lon="4.61023">
        <ele>380</ele>
        <time>2022-10-12T12:40:35Z</time>
      </trkpt>
      <trkpt lat="45.98043" lon="4.61014">
        <ele>380</ele>
        <time>2022-10-12T12:40:44Z</time>
      </trkpt>
      <trkpt lat="45.98057" lon="4.61001">
        <ele>384</ele>
        <time>2022-10-12T12:41:06Z</time>
      </trkpt>
      <trkpt lat="45.98081" lon="4.61007">
        <ele>390</ele>
        <time>2022-10-12T12:41:39Z</time>
      </trkpt>
      <trkpt lat="45.9809" lon="4.61015">
        <ele>392</ele>
        <time>2022-10-12T12:41:53Z</time>
      </trkpt>
      <trkpt lat="45.98094" lon="4.61021">
        <ele>393</ele>
        <time>2022-10-12T12:42:01Z</time>
      </trkpt>
      <trkpt lat="45.98108" lon="4.61024">
        <ele>395</ele>
        <time>2022-10-12T12:42:20Z</time>
      </trkpt>
      <trkpt lat="45.98123" lon="4.61022">
        <ele>398</ele>
        <time>2022-10-12T12:42:40Z</time>
      </trkpt>
      <trkpt lat="45.98137" lon="4.61027">
        <ele>401</ele>
        <time>2022-10-12T12:42:59Z</time>
      </trkpt>
      <trkpt lat="45.98186" lon="4.6101">
        <ele>408</ele>
        <time>2022-10-12T12:44:06Z</time>
      </trkpt>
      <trkpt lat="45.98188" lon="4.60995">
        <ele>408</ele>
        <time>2022-10-12T12:44:20Z</time>
      </trkpt>
      <trkpt lat="45.9821" lon="4.6103">
        <ele>409</ele>
        <time>2022-10-12T12:45:04Z</time>
      </trkpt>
      <trkpt lat="45.98256" lon="4.61125">
        <ele>404</ele>
        <time>2022-10-12T12:46:51Z</time>
      </trkpt>
      <trkpt lat="45.98386" lon="4.61045">
        <ele>423</ele>
        <time>2022-10-12T12:50:00Z</time>
      </trkpt>
      <trkpt lat="45.98432" lon="4.61022">
        <ele>429</ele>
        <time>2022-10-12T12:51:05Z</time>
      </trkpt>
      <trkpt lat="45.98495" lon="4.61062">
        <ele>432</ele>
        <time>2022-10-12T12:52:37Z</time>
      </trkpt>
      <trkpt lat="45.98575" lon="4.6114">
        <ele>435</ele>
        <time>2022-10-12T12:54:46Z</time>
      </trkpt>
      <trkpt lat="45.98633" lon="4.6121">
        <ele>436</ele>
        <time>2022-10-12T12:56:27Z</time>
      </trkpt>
      <trkpt lat="45.9866" lon="4.61229">
        <ele>438</ele>
        <time>2022-10-12T12:57:07Z</time>
      </trkpt>
      <trkpt lat="45.98709" lon="4.61305">
        <ele>439</ele>
        <time>2022-10-12T12:58:43Z</time>
      </trkpt>
      <trkpt lat="45.98833" lon="4.6145">
        <ele>449</ele>
        <time>2022-10-12T13:02:16Z</time>
      </trkpt>
      <trkpt lat="45.9889" lon="4.61498">
        <ele>449</ele>
        <time>2022-10-12T13:03:45Z</time>
      </trkpt>
      <trkpt lat="45.98932" lon="4.61513">
        <ele>447</ele>
        <time>2022-10-12T13:04:42Z</time>
      </trkpt>
      <trkpt lat="45.98994" lon="4.61493">
        <ele>445</ele>
        <time>2022-10-12T13:06:07Z</time>
      </trkpt>
      <trkpt lat="45.98997" lon="4.61562">
        <ele>440</ele>
        <time>2022-10-12T13:07:11Z</time>
      </trkpt>
      <trkpt lat="45.99003" lon="4.61615">
        <ele>437</ele>
        <time>2022-10-12T13:08:01Z</time>
      </trkpt>
      <trkpt lat="45.99015" lon="4.61677">
        <ele>434</ele>
        <time>2022-10-12T13:09:01Z</time>
      </trkpt>
      <trkpt lat="45.99032" lon="4.61757">
        <ele>431</ele>
        <time>2022-10-12T13:10:18Z</time>
      </trkpt>
      <trkpt lat="45.99055" lon="4.6185">
        <ele>424</ele>
        <time>2022-10-12T13:11:50Z</time>
      </trkpt>
      <trkpt lat="45.99059" lon="4.61882">
        <ele>420</ele>
        <time>2022-10-12T13:12:20Z</time>
      </trkpt>
      <trkpt lat="45.9906" lon="4.61909">
        <ele>417</ele>
        <time>2022-10-12T13:12:45Z</time>
      </trkpt>
      <trkpt lat="45.99054" lon="4.61963">
        <ele>412</ele>
        <time>2022-10-12T13:13:36Z</time>
      </trkpt>
      <trkpt lat="45.99055" lon="4.62006">
        <ele>406</ele>
        <time>2022-10-12T13:14:16Z</time>
      </trkpt>
      <trkpt lat="45.99059" lon="4.62045">
        <ele>400</ele>
        <time>2022-10-12T13:14:52Z</time>
      </trkpt>
      <trkpt lat="45.99118" lon="4.62013">
        <ele>402</ele>
        <time>2022-10-12T13:16:16Z</time>
      </trkpt>
      <trkpt lat="45.99141" lon="4.6201">
        <ele>402</ele>
        <time>2022-10-12T13:16:47Z</time>
      </trkpt>
      <trkpt lat="45.9917" lon="4.6201">
        <ele>401</ele>
        <time>2022-10-12T13:17:26Z</time>
      </trkpt>
      <trkpt lat="45.99197" lon="4.62007">
        <ele>400</ele>
        <time>2022-10-12T13:18:02Z</time>
      </trkpt>
      <trkpt lat="45.99201" lon="4.62005">
        <ele>401</ele>
        <time>2022-10-12T13:18:08Z</time>
      </trkpt>
      <trkpt lat="45.99218" lon="4.62026">
        <ele>397</ele>
        <time>2022-10-12T13:18:37Z</time>
      </trkpt>
      <trkpt lat="45.99224" lon="4.62044">
        <ele>395</ele>
        <time>2022-10-12T13:18:56Z</time>
      </trkpt>
      <trkpt lat="45.99236" lon="4.62054">
        <ele>393</ele>
        <time>2022-10-12T13:19:14Z</time>
      </trkpt>
      <trkpt lat="45.99252" lon="4.62061">
        <ele>392</ele>
        <time>2022-10-12T13:19:37Z</time>
      </trkpt>
      <trkpt lat="45.99272" lon="4.62077">
        <ele>390</ele>
        <time>2022-10-12T13:20:07Z</time>
      </trkpt>
      <trkpt lat="45.99285" lon="4.62092">
        <ele>388</ele>
        <time>2022-10-12T13:20:30Z</time>
      </trkpt>
      <trkpt lat="45.99302" lon="4.62133">
        <ele>385</ele>
        <time>2022-10-12T13:21:14Z</time>
      </trkpt>
      <trkpt lat="45.99314" lon="4.62144">
        <ele>385</ele>
        <time>2022-10-12T13:21:33Z</time>
      </trkpt>
      <trkpt lat="45.99339" lon="4.62153">
        <ele>384</ele>
        <time>2022-10-12T13:22:07Z</time>
      </trkpt>
      <trkpt lat="45.99329" lon="4.62162">
        <ele>383</ele>
        <time>2022-10-12T13:22:23Z</time>
      </trkpt>
      <trkpt lat="45.99319" lon="4.62187">
        <ele>382</ele>
        <time>2022-10-12T13:22:50Z</time>
      </trkpt>
      <trkpt lat="45.9931" lon="4.62218">
        <ele>380</ele>
        <time>2022-10-12T13:23:21Z</time>
      </trkpt>
      <trkpt lat="45.99307" lon="4.62229">
        <ele>379</ele>
        <time>2022-10-12T13:23:32Z</time>
      </trkpt>
      <trkpt lat="45.99271" lon="4.62227">
        <ele>378</ele>
        <time>2022-10-12T13:24:20Z</time>
      </trkpt>
      <trkpt lat="45.99261" lon="4.6223">
        <ele>377</ele>
        <time>2022-10-12T13:24:33Z</time>
      </trkpt>
      <trkpt lat="45.99236" lon="4.62247">
        <ele>374</ele>
        <time>2022-10-12T13:25:10Z</time>
      </trkpt>
      <trkpt lat="45.99217" lon="4.62262">
        <ele>373</ele>
        <time>2022-10-12T13:25:39Z</time>
      </trkpt>
      <trkpt lat="45.992" lon="4.62284">
        <ele>372</ele>
        <time>2022-10-12T13:26:10Z</time>
      </trkpt>
      <trkpt lat="45.99184" lon="4.62324">
        <ele>372</ele>
        <time>2022-10-12T13:26:53Z</time>
      </trkpt>
      <trkpt lat="45.99172" lon="4.6243">
        <ele>372</ele>
        <time>2022-10-12T13:28:32Z</time>
      </trkpt>
      <trkpt lat="45.99171" lon="4.62454">
        <ele>372</ele>
        <time>2022-10-12T13:28:54Z</time>
      </trkpt>
      <trkpt lat="45.99135" lon="4.62455">
        <ele>372</ele>
        <time>2022-10-12T13:29:42Z</time>
      </trkpt>
      <trkpt lat="45.99086" lon="4.62437">
        <ele>373</ele>
        <time>2022-10-12T13:30:50Z</time>
      </trkpt>
      <trkpt lat="45.99067" lon="4.62426">
        <ele>374</ele>
        <time>2022-10-12T13:31:17Z</time>
      </trkpt>
      <trkpt lat="45.99024" lon="4.62418">
        <ele>376</ele>
        <time>2022-10-12T13:32:15Z</time>
      </trkpt>
      <trkpt lat="45.99019" lon="4.62425">
        <ele>376</ele>
        <time>2022-10-12T13:32:24Z</time>
      </trkpt>
      <trkpt lat="45.99019" lon="4.62433">
        <ele>375</ele>
        <time>2022-10-12T13:32:32Z</time>
      </trkpt>
      <trkpt lat="45.99012" lon="4.62424">
        <ele>376</ele>
        <time>2022-10-12T13:32:44Z</time>
      </trkpt>
      <trkpt lat="45.9899" lon="4.62423">
        <ele>376</ele>
        <time>2022-10-12T13:33:14Z</time>
      </trkpt>
      <trkpt lat="45.9897" lon="4.6243">
        <ele>373</ele>
        <time>2022-10-12T13:33:41Z</time>
      </trkpt>
      <trkpt lat="45.98966" lon="4.62434">
        <ele>372</ele>
        <time>2022-10-12T13:33:48Z</time>
      </trkpt>
    </trkseg>
  </trk>
</gpx>